WetterOnline ( http://www.wetteronline.de )

Wetter aktuell Freiburg

Aktuelles Wetter: Freiburg/Flugplatz (236m)

6-stündlich | Neueste Meldungen
Ortszeit Temperatur Wetter
Do, 16.08. 14:00 28.7° C wolkenlos
Do, 16.08. 8:00 15.9° C wolkenlos
Do, 16.08. 2:00 14.9° C wolkig
Mi, 15.08. 20:00 25.5° C wolkenlos
Mi, 15.08. 14:00 25.6° C fast wolkenlos
Mi, 15.08. 8:00 15.1° C wolkenlos
Mi, 15.08. 2:00 13.8° C fast wolkenlos
Di, 14.08. 20:00 23.5° C bewölkt
Ortszeit Temperatur Wetter
Do, 16.08. 17:00 30.4° C leicht bewölkt
Do, 16.08. 16:50 30.4° C wolkig
Do, 16.08. 16:40 30.2° C wolkig
Do, 16.08. 16:30 30.4° C wolkig
Do, 16.08. 16:20 30.4° C wolkig
Do, 16.08. 16:10 29.7° C wolkig
Do, 16.08. 16:00 29.6° C leicht bewölkt
Do, 16.08. 15:30 30.1° C wolkenlos
Do, 16.08. 15:00 29.3° C wolkenlos
Do, 16.08. 14:30 28.6° C wolkenlos
Do, 16.08. 14:00 28.7° C wolkenlos
Ortszeit Relative Feuchte Sichtweite
Do, 16.08. 14:00 36% 30 km
Do, 16.08. 8:00 84% 24 km
Do, 16.08. 2:00 86% 40 km
Mi, 15.08. 20:00 43% 70 km
Mi, 15.08. 14:00 39% 65 km
Mi, 15.08. 8:00 85% 20 km
Mi, 15.08. 2:00 91% 35 km
Di, 14.08. 20:00 47% 70 km
Ortszeit Relative Feuchte Sichtweite
Do, 16.08. 17:00 33% 45 km
Do, 16.08. 16:50 33% -
Do, 16.08. 16:40 34% -
Do, 16.08. 16:30 34% 35 km
Do, 16.08. 16:20 34% -
Do, 16.08. 16:10 33% -
Do, 16.08. 16:00 35% 35 km
Do, 16.08. 15:30 35% 40 km
Do, 16.08. 15:00 36% 40 km
Do, 16.08. 14:30 37% 40 km
Do, 16.08. 14:00 36% 30 km
Ortszeit Niederschlagsmenge Niederschlagsart
Do, 16.08. 14:00 0.0 l/m2 in 6 Std. -
Do, 16.08. 8:00 0.0 l/m2 in 12 Std. -
Do, 16.08. 2:00 0.0 l/m2 in 6 Std. -
Mi, 15.08. 20:00 0.0 l/m2 in 12 Std. -
Mi, 15.08. 14:00 0.0 l/m2 in 6 Std. -
Mi, 15.08. 8:00 0.0 l/m2 in 12 Std. -
Mi, 15.08. 2:00 0.0 l/m2 in 6 Std. -
Di, 14.08. 20:00 0.0 l/m2 in 12 Std. -
Ortszeit Niederschlagsmenge Niederschlagsart
Do, 16.08. 17:00 0.0 l/m2 in 1 Std. -
Do, 16.08. 16:50 keine Meldung -
Do, 16.08. 16:40 keine Meldung -
Do, 16.08. 16:30 0.0 l/m2 in 1 Std. -
Do, 16.08. 16:20 keine Meldung -
Do, 16.08. 16:10 keine Meldung -
Do, 16.08. 16:00 0.0 l/m2 in 1 Std. -
Do, 16.08. 15:30 0.0 l/m2 in 1 Std. -
Do, 16.08. 15:00 0.0 l/m2 in 1 Std. -
Do, 16.08. 14:30 0.0 l/m2 in 1 Std. -
Do, 16.08. 14:00 0.0 l/m2 in 1 Std. -
Ortszeit Stärke Spitze Richtung
km/h Bft. km/h Grad Sektor
Do, 16.08. 14:00 6 1 19 340° N
Do, 16.08. 8:00 4 1 7 20° N
Do, 16.08. 2:00 4 1 14 340° N
Mi, 15.08. 20:00 9 2 24 350° N
Mi, 15.08. 14:00 9 2 19 340° N
Mi, 15.08. 8:00 7 2 7 350° N
Mi, 15.08. 2:00 2 1 20 10° N
Di, 14.08. 20:00 11 2 29 360° N
Ortszeit Stärke Spitze Richtung
km/h Bft. km/h Grad Sektor
Do, 16.08. 17:00 11 2 22 300° NW
Do, 16.08. 16:50 11 2 - 300° NW
Do, 16.08. 16:40 11 2 - 260° W
Do, 16.08. 16:30 9 2 20 300° NW
Do, 16.08. 16:20 9 2 - 300° NW
Do, 16.08. 16:10 11 2 - 330° NW
Do, 16.08. 16:00 13 3 26 310° NW
Do, 16.08. 15:30 11 2 18 310° NW
Do, 16.08. 15:00 9 2 20 360° N
Do, 16.08. 14:30 9 2 20 350° N
Do, 16.08. 14:00 6 1 17 340° N
Ortszeit Untergrenze Bedeckung Gattung
total tief tief mittel hoch
Do, 16.08. 14:00 - 0/8 0/8 - - -
Do, 16.08. 8:00 2100 m 0/8 0/8 - - -
Do, 16.08. 2:00 10500 m 8/8 0/8 - - -
Mi, 15.08. 20:00 - 0/8 0/8 - - -
Mi, 15.08. 14:00 1500 m 1/8 1/8 - - -
Mi, 15.08. 8:00 - 0/8 0/8 - - -
Mi, 15.08. 2:00 3000 m 1/8 1/8 - - -
Di, 14.08. 20:00 2400 m 7/8 7/8 - - -
Ortszeit Bedeckungsgrad in Achtel und Wolkenuntergrenze
Do, 16.08. 17:00 8(10500m) 8(10500m)
Do, 16.08. 16:50 8(10500m) 8(10500m)
Do, 16.08. 16:40 8(10500m) 8(10500m)
Do, 16.08. 16:30 8(10500m) 8(10500m)
Do, 16.08. 16:20 8(10500m)
Do, 16.08. 16:10 7(10500m)
Do, 16.08. 16:00 3(10500m)
Do, 16.08. 15:30 keine Wolken
Do, 16.08. 15:00 keine Wolken
Do, 16.08. 14:30 keine Wolken
Do, 16.08. 14:00 keine Wolken
Ortszeit Luftdruck NN (hPa) Tendenz (hPa in 3 Std.)
Do, 16.08. 14:00 1015 - 1,8
Do, 16.08. 8:00 1019 - 0,1
Do, 16.08. 2:00 1019 - 0,1
Mi, 15.08. 20:00 1018 - 0,3
Mi, 15.08. 14:00 1019 - 1,1
Mi, 15.08. 8:00 1021 + 0,5
Mi, 15.08. 2:00 1021 + 0,8
Di, 14.08. 20:00 1017 + 1,0
Ortszeit Luftdruck NN (hPa) Tendenz (hPa in 3 Std.)
Do, 16.08. 17:00 1013 - 1,7
Do, 16.08. 16:50 1013 keine Meldung
Do, 16.08. 16:40 1013 keine Meldung
Do, 16.08. 16:30 1013 - 1,7
Do, 16.08. 16:20 1013 keine Meldung
Do, 16.08. 16:10 1013 keine Meldung
Do, 16.08. 16:00 1013 - 1,8
Do, 16.08. 15:30 1013 - 2,0
Do, 16.08. 15:00 1014 - 1,8
Do, 16.08. 14:30 1014 - 1,9
Do, 16.08. 14:00 1015 - 1,8
Ortszeit Schneehöhe (cm)
Do, 16.08. 14:00 -
Do, 16.08. 8:00 -
Do, 16.08. 2:00 -
Mi, 15.08. 20:00 -
Mi, 15.08. 14:00 -
Mi, 15.08. 8:00 -
Mi, 15.08. 2:00 -
Di, 14.08. 20:00 -
Ortszeit Schneehöhe (cm)
Do, 16.08. 17:00 -
Do, 16.08. 16:50 -
Do, 16.08. 16:40 -
Do, 16.08. 16:30 -
Do, 16.08. 16:20 -
Do, 16.08. 16:10 -
Do, 16.08. 16:00 -
Do, 16.08. 15:30 -
Do, 16.08. 15:00 -
Do, 16.08. 14:30 -
Do, 16.08. 14:00 -
Link zu dieser Seite / Seite empfehlen

Das Wetter in ...